createdAt,value
2018-07-20T00:01:44.880Z,25.00
2018-07-20T00:04:26.526Z,25.00
2018-07-20T00:07:08.066Z,24.90
2018-07-20T00:09:49.485Z,24.90
2018-07-20T00:12:31.340Z,24.90
2018-07-20T00:15:12.627Z,24.90
2018-07-20T00:17:54.382Z,24.80
2018-07-20T00:20:36.236Z,24.80
2018-07-20T00:23:18.225Z,24.80
2018-07-20T00:25:59.362Z,24.80
2018-07-20T00:28:40.977Z,24.80
2018-07-20T00:31:22.656Z,24.70
2018-07-20T00:34:04.240Z,24.60
2018-07-20T00:36:45.982Z,24.60
2018-07-20T00:39:27.692Z,24.50
2018-07-20T00:42:09.449Z,24.50
2018-07-20T00:44:50.979Z,24.50
2018-07-20T00:47:32.527Z,24.50
2018-07-20T00:50:14.170Z,24.40
2018-07-20T00:52:56.355Z,24.40
2018-07-20T00:55:37.712Z,24.40
2018-07-20T01:01:01.208Z,24.30
2018-07-20T01:03:42.959Z,24.30
2018-07-20T01:06:24.677Z,24.30
2018-07-20T01:09:06.420Z,24.20
2018-07-20T01:11:48.173Z,24.20
2018-07-20T01:14:29.712Z,24.20
2018-07-20T01:17:11.768Z,24.20
2018-07-20T01:19:52.978Z,24.20
2018-07-20T01:22:34.937Z,24.20
2018-07-20T01:25:16.337Z,24.20
2018-07-20T01:27:57.849Z,24.20
2018-07-20T01:33:20.373Z,24.20
2018-07-20T01:36:01.957Z,24.20
2018-07-20T01:38:43.705Z,24.20
2018-07-20T01:41:24.418Z,24.20
2018-07-20T01:44:05.903Z,24.10
2018-07-20T01:46:47.470Z,24.10
2018-07-20T01:49:29.783Z,24.10
2018-07-20T01:52:10.824Z,24.10
2018-07-20T01:54:51.631Z,24.00
2018-07-20T01:57:33.486Z,24.00
2018-07-20T02:00:15.189Z,23.90
2018-07-20T02:02:56.831Z,23.90
2018-07-20T02:05:38.306Z,23.80
2018-07-20T02:08:20.006Z,23.80
2018-07-20T02:11:02.202Z,23.80
2018-07-20T02:13:43.382Z,23.70
2018-07-20T02:16:25.182Z,23.70
2018-07-20T02:19:06.598Z,23.70
2018-07-20T02:21:50.465Z,23.70
2018-07-20T02:24:33.142Z,23.70
2018-07-20T02:27:15.312Z,23.70
2018-07-20T02:29:57.041Z,23.70
2018-07-20T02:32:38.383Z,23.70
2018-07-20T02:35:20.286Z,23.70
2018-07-20T02:38:02.235Z,23.70
2018-07-20T02:40:43.655Z,23.70
2018-07-20T02:43:25.537Z,23.70
2018-07-20T02:46:07.382Z,23.70
2018-07-20T02:48:49.019Z,23.60
2018-07-20T02:51:30.041Z,23.60
2018-07-20T02:54:11.638Z,23.60
2018-07-20T02:56:53.268Z,23.60
2018-07-20T02:59:34.067Z,23.60
2018-07-20T03:02:15.935Z,23.60
2018-07-20T03:04:57.556Z,23.60
2018-07-20T03:07:39.266Z,23.60
2018-07-20T03:10:20.867Z,23.50
2018-07-20T03:13:02.577Z,23.50
2018-07-20T03:15:45.309Z,23.60
2018-07-20T03:18:27.039Z,23.50
2018-07-20T03:21:08.628Z,23.50
2018-07-20T03:26:32.216Z,23.50
2018-07-20T03:29:13.885Z,23.50
2018-07-20T03:31:55.996Z,23.50
2018-07-20T03:34:36.882Z,23.50
2018-07-20T03:37:18.573Z,23.50
2018-07-20T03:39:59.313Z,23.50
2018-07-20T03:42:40.915Z,23.40
2018-07-20T03:45:22.535Z,23.40
2018-07-20T03:48:04.399Z,23.40
2018-07-20T03:50:46.272Z,23.40
2018-07-20T03:53:27.760Z,23.30
2018-07-20T03:56:08.560Z,23.30
2018-07-20T03:58:49.332Z,23.20
2018-07-20T04:01:30.915Z,23.20
2018-07-20T04:04:13.526Z,23.20
2018-07-20T04:06:55.137Z,23.20
2018-07-20T04:09:36.722Z,23.20
2018-07-20T04:12:18.419Z,23.20
2018-07-20T04:15:00.075Z,23.20
2018-07-20T04:17:43.953Z,23.10
2018-07-20T04:20:25.281Z,23.10
2018-07-20T04:23:06.088Z,23.10
2018-07-20T04:25:47.772Z,23.10
2018-07-20T04:28:29.548Z,23.10
2018-07-20T04:31:11.224Z,23.10
2018-07-20T04:33:52.688Z,23.10
2018-07-20T04:36:34.391Z,23.10
2018-07-20T04:39:16.131Z,23.10
2018-07-20T04:41:57.889Z,23.10
2018-07-20T04:44:39.427Z,23.10
2018-07-20T04:47:21.358Z,23.10
2018-07-20T04:50:02.768Z,23.10
2018-07-20T04:52:45.046Z,23.10
2018-07-20T04:55:26.093Z,23.10
2018-07-20T04:58:07.042Z,23.10
2018-07-20T05:00:49.064Z,23.20
2018-07-20T05:03:30.277Z,23.20
2018-07-20T05:06:11.689Z,23.30
2018-07-20T05:08:55.021Z,23.30
2018-07-20T05:11:36.588Z,23.30
2018-07-20T05:14:18.323Z,23.40
2018-07-20T05:16:59.527Z,23.40
2018-07-20T05:19:41.311Z,23.40
2018-07-20T05:22:22.842Z,23.40
2018-07-20T05:25:05.079Z,23.40
2018-07-20T05:27:46.221Z,23.40
2018-07-20T05:30:26.983Z,23.40
2018-07-20T05:33:08.480Z,23.40
2018-07-20T05:35:50.664Z,23.50
2018-07-20T05:38:31.644Z,23.50
2018-07-20T05:41:12.617Z,23.50
2018-07-20T05:43:54.176Z,23.60
2018-07-20T05:46:36.004Z,23.60
2018-07-20T05:49:17.483Z,23.70
2018-07-20T05:51:59.252Z,23.80
2018-07-20T05:54:41.043Z,24.00
2018-07-20T05:57:22.871Z,24.10
2018-07-20T06:00:04.307Z,24.10
2018-07-20T06:02:46.099Z,24.20
2018-07-20T06:05:27.755Z,24.30
2018-07-20T06:08:09.451Z,24.30
2018-07-20T06:10:51.113Z,24.40
2018-07-20T06:13:39.542Z,24.50
2018-07-20T06:16:20.665Z,24.50
2018-07-20T06:19:02.749Z,24.60
2018-07-20T06:21:44.241Z,24.70
2018-07-20T06:24:25.886Z,24.70
2018-07-20T06:27:07.376Z,24.80
2018-07-20T06:29:48.196Z,24.90
2018-07-20T06:32:29.750Z,25.10
2018-07-20T06:35:12.525Z,25.10
2018-07-20T06:37:53.978Z,25.30
2018-07-20T06:40:35.632Z,25.30
2018-07-20T06:43:17.640Z,25.50
2018-07-20T06:45:58.899Z,25.70
2018-07-20T06:48:40.669Z,25.80
2018-07-20T06:51:22.516Z,25.80
2018-07-20T06:54:03.706Z,25.90
2018-07-20T06:56:44.563Z,25.90
2018-07-20T06:59:26.143Z,26.00
2018-07-20T07:02:06.857Z,26.00
2018-07-20T07:04:48.306Z,26.10
2018-07-20T07:07:29.391Z,26.20
2018-07-20T07:10:11.047Z,26.30
2018-07-20T07:12:52.647Z,26.40
2018-07-20T07:15:33.393Z,26.50
2018-07-20T07:18:14.215Z,26.50
2018-07-20T07:20:55.885Z,26.60
2018-07-20T07:23:37.615Z,26.70
2018-07-20T07:26:19.250Z,26.70
2018-07-20T07:29:00.880Z,26.70
2018-07-20T07:31:42.470Z,26.70
2018-07-20T07:34:23.376Z,26.60
2018-07-20T07:37:04.786Z,26.70
2018-07-20T07:39:46.373Z,26.70
2018-07-20T07:42:28.095Z,26.90
2018-07-20T07:45:09.800Z,26.90
2018-07-20T07:47:50.536Z,27.00
2018-07-20T07:50:31.286Z,26.90
2018-07-20T07:53:12.079Z,27.00
2018-07-20T07:55:53.574Z,27.10
2018-07-20T07:58:35.287Z,27.10
2018-07-20T08:01:17.288Z,27.00
2018-07-20T08:03:58.638Z,27.10
2018-07-20T08:06:40.208Z,27.00
2018-07-20T08:09:21.994Z,27.00
2018-07-20T08:12:03.606Z,27.00
2018-07-20T08:14:44.337Z,27.10
2018-07-20T08:17:27.378Z,27.10
2018-07-20T08:20:08.516Z,27.20
2018-07-20T08:22:49.373Z,27.20
2018-07-20T08:25:31.153Z,27.20
2018-07-20T08:28:12.588Z,27.00
2018-07-20T08:30:54.392Z,27.10
2018-07-20T08:33:36.017Z,27.30
2018-07-20T08:36:16.850Z,27.50
2018-07-20T08:38:58.785Z,27.50
2018-07-20T08:41:40.418Z,27.50
2018-07-20T08:44:21.536Z,27.50
2018-07-20T08:47:03.239Z,27.50
2018-07-20T08:49:44.840Z,27.60
2018-07-20T08:55:15.058Z,27.80
2018-07-20T08:57:56.054Z,27.90
2018-07-20T09:00:36.939Z,28.00
2018-07-20T09:03:18.412Z,28.00
2018-07-20T09:06:00.195Z,28.10
2018-07-20T09:08:41.651Z,28.20
2018-07-20T09:11:23.353Z,28.10
2018-07-20T09:14:05.063Z,28.20
2018-07-20T09:16:46.020Z,28.40
2018-07-20T09:19:27.587Z,28.50
2018-07-20T09:22:08.900Z,28.70
2018-07-20T09:24:50.013Z,28.80
2018-07-20T09:27:31.557Z,29.00
2018-07-20T09:30:13.224Z,29.10
2018-07-20T09:32:54.126Z,29.30
2018-07-20T09:35:35.908Z,29.50
2018-07-20T09:38:17.802Z,29.50
2018-07-20T09:40:59.593Z,29.50
2018-07-20T09:43:41.009Z,29.50
2018-07-20T09:46:22.672Z,29.50
2018-07-20T09:49:04.393Z,29.60
2018-07-20T09:51:45.964Z,29.50
2018-07-20T09:54:28.264Z,29.50
2018-07-20T09:57:09.460Z,29.50
2018-07-20T09:59:51.171Z,29.70
2018-07-20T10:02:32.812Z,29.70
2018-07-20T10:05:15.024Z,29.70
2018-07-20T10:07:56.399Z,29.80
2018-07-20T10:10:37.953Z,29.70
2018-07-20T10:13:19.856Z,29.80
2018-07-20T10:16:01.377Z,29.80
2018-07-20T10:18:43.054Z,29.80
2018-07-20T10:21:24.636Z,29.90
2018-07-20T10:24:06.218Z,29.90
2018-07-20T10:26:48.401Z,30.00
2018-07-20T10:29:29.701Z,30.10
2018-07-20T10:32:10.880Z,30.00
2018-07-20T10:34:52.545Z,30.10
2018-07-20T10:37:33.589Z,30.20
2018-07-20T10:40:15.177Z,30.40
2018-07-20T10:42:58.437Z,30.30
2018-07-20T10:45:39.637Z,30.30
2018-07-20T10:48:21.181Z,30.30
2018-07-20T10:51:01.985Z,30.20
2018-07-20T10:53:43.727Z,30.30
2018-07-20T10:56:25.181Z,30.40
2018-07-20T10:59:06.807Z,30.40
2018-07-20T11:01:48.354Z,30.20
2018-07-20T11:04:29.062Z,30.10
2018-07-20T11:07:10.792Z,30.40
2018-07-20T11:09:52.418Z,30.40
2018-07-20T11:12:34.012Z,30.50
2018-07-20T11:15:14.758Z,30.30
2018-07-20T11:17:56.957Z,30.50
2018-07-20T11:20:38.135Z,30.50
2018-07-20T11:26:01.445Z,30.20
2018-07-20T11:28:42.514Z,30.10
2018-07-20T11:31:23.920Z,29.90
2018-07-20T11:34:05.542Z,30.00
2018-07-20T11:36:46.933Z,29.90
2018-07-20T11:42:19.023Z,30.20
2018-07-20T11:45:00.041Z,30.40
2018-07-20T11:47:45.382Z,30.10
2018-07-20T11:50:26.534Z,30.20
2018-07-20T11:53:07.254Z,30.10
2018-07-20T11:55:49.559Z,30.10
2018-07-20T11:58:31.215Z,30.00
2018-07-20T12:01:12.285Z,29.90
2018-07-20T12:03:54.000Z,29.90
2018-07-20T12:06:36.044Z,30.00
2018-07-20T12:09:17.428Z,30.30
2018-07-20T12:11:58.910Z,30.30
2018-07-20T12:14:39.729Z,30.40
2018-07-20T12:17:21.332Z,30.50
2018-07-20T12:20:03.142Z,30.60
2018-07-20T12:22:45.056Z,30.60
2018-07-20T12:25:26.222Z,30.40
2018-07-20T12:28:07.996Z,30.10
2018-07-20T12:30:48.643Z,30.10
2018-07-20T12:33:30.192Z,30.00
2018-07-20T12:36:11.789Z,29.90
2018-07-20T12:38:53.713Z,29.90
2018-07-20T12:41:35.338Z,30.00
2018-07-20T12:44:17.273Z,30.10
2018-07-20T12:46:58.728Z,30.30
2018-07-20T12:49:40.036Z,30.40
2018-07-20T12:52:21.635Z,30.60
2018-07-20T12:55:03.071Z,30.70
2018-07-20T12:57:44.778Z,30.60
2018-07-20T13:00:26.587Z,30.50
2018-07-20T13:03:08.289Z,30.40
2018-07-20T13:05:49.040Z,30.40
2018-07-20T13:08:30.636Z,30.30
2018-07-20T13:11:12.217Z,30.40
2018-07-20T13:13:53.890Z,30.40
2018-07-20T13:16:34.540Z,30.50
2018-07-20T13:19:16.307Z,30.60
2018-07-20T13:21:57.977Z,30.60
2018-07-20T13:24:39.565Z,30.60
2018-07-20T13:27:21.273Z,30.70
2018-07-20T13:30:02.968Z,31.00
2018-07-20T13:32:44.574Z,31.00
2018-07-20T13:35:25.536Z,31.00
2018-07-20T13:38:08.101Z,31.10
2018-07-20T13:40:49.700Z,31.00
2018-07-20T13:43:30.922Z,31.00
2018-07-20T13:46:12.492Z,30.80
2018-07-20T13:48:53.871Z,30.70
2018-07-20T13:51:35.545Z,30.80
2018-07-20T13:54:16.910Z,30.80
2018-07-20T13:56:58.481Z,30.60
2018-07-20T13:59:40.230Z,30.60
2018-07-20T14:02:21.810Z,30.50
2018-07-20T14:05:03.745Z,30.60
2018-07-20T14:07:45.387Z,30.90
2018-07-20T14:10:26.520Z,31.00
2018-07-20T14:13:09.177Z,31.10
2018-07-20T14:15:51.995Z,31.20
2018-07-20T14:18:33.349Z,31.20
2018-07-20T14:21:14.804Z,31.30
2018-07-20T14:23:57.626Z,31.10
2018-07-20T14:26:40.148Z,31.00
2018-07-20T14:29:26.659Z,30.90
2018-07-20T14:32:08.436Z,31.00
2018-07-20T14:34:50.146Z,31.20
2018-07-20T14:37:31.874Z,31.20
2018-07-20T14:40:12.637Z,31.40
2018-07-20T14:42:54.279Z,31.50
2018-07-20T14:45:35.108Z,31.50
2018-07-20T14:48:16.761Z,31.50
2018-07-20T14:50:58.500Z,31.30
2018-07-20T14:53:40.041Z,31.10
2018-07-20T14:56:21.552Z,31.00
2018-07-20T14:59:03.208Z,31.00
2018-07-20T15:01:43.919Z,31.10
2018-07-20T15:04:24.740Z,31.30
2018-07-20T15:07:06.297Z,31.50
2018-07-20T15:09:48.106Z,31.60
2018-07-20T15:12:29.800Z,31.70
2018-07-20T15:15:11.424Z,31.70
2018-07-20T15:17:52.289Z,31.70
2018-07-20T15:20:33.244Z,31.80
2018-07-20T15:23:14.006Z,31.70
2018-07-20T15:25:55.566Z,31.70
2018-07-20T15:28:36.443Z,31.70
2018-07-20T15:31:18.283Z,31.80
2018-07-20T15:33:59.963Z,31.80
2018-07-20T15:36:41.660Z,31.90
2018-07-20T15:39:22.387Z,32.00
2018-07-20T15:42:04.005Z,32.00
2018-07-20T15:44:45.661Z,31.90
2018-07-20T15:47:27.636Z,31.90
2018-07-20T15:50:09.249Z,31.90
2018-07-20T15:53:36.264Z,31.90
2018-07-20T15:55:31.887Z,31.80
2018-07-20T15:58:13.654Z,31.50
2018-07-20T16:00:57.086Z,31.50
2018-07-20T16:03:38.781Z,31.50
2018-07-20T16:06:20.488Z,31.40
2018-07-20T16:09:02.127Z,31.20
2018-07-20T16:11:43.868Z,31.10
2018-07-20T16:14:24.576Z,31.10
2018-07-20T16:17:05.356Z,31.00
2018-07-20T16:19:47.033Z,30.90
2018-07-20T16:22:28.614Z,30.80
2018-07-20T16:25:09.478Z,30.80
2018-07-20T16:27:51.074Z,30.70
2018-07-20T16:30:32.650Z,30.60
2018-07-20T16:33:14.310Z,30.60
2018-07-20T16:35:56.616Z,30.50
2018-07-20T16:38:37.716Z,30.30
2018-07-20T16:41:18.598Z,30.10
2018-07-20T16:44:00.301Z,29.90
2018-07-20T16:46:41.816Z,29.80
2018-07-20T16:49:23.559Z,29.60
2018-07-20T16:52:05.480Z,29.30
2018-07-20T16:54:47.254Z,29.10
2018-07-20T16:57:29.193Z,28.90
2018-07-20T17:00:10.726Z,28.80
2018-07-20T17:02:52.605Z,28.60
2018-07-20T17:05:33.754Z,28.50
2018-07-20T17:08:17.545Z,28.40
2018-07-20T17:10:58.971Z,28.40
2018-07-20T17:16:38.371Z,28.20
2018-07-20T17:19:19.887Z,28.20
2018-07-20T17:22:01.617Z,28.10
2018-07-20T17:24:42.516Z,28.00
2018-07-20T17:27:23.955Z,28.00
2018-07-20T17:30:05.578Z,28.00
2018-07-20T17:32:46.310Z,28.00
2018-07-20T17:35:27.977Z,27.90
2018-07-20T17:38:11.066Z,27.90
2018-07-20T17:40:52.117Z,27.90
2018-07-20T17:43:33.736Z,27.80
2018-07-20T17:46:16.245Z,27.70
2018-07-20T17:48:57.511Z,27.60
2018-07-20T17:51:39.931Z,27.60
2018-07-20T17:54:22.137Z,27.50
2018-07-20T17:57:03.065Z,27.50
2018-07-20T17:59:44.463Z,27.50
2018-07-20T18:02:32.147Z,27.40
2018-07-20T18:05:13.977Z,27.40
2018-07-20T18:07:55.427Z,27.40
2018-07-20T18:10:37.613Z,27.40
2018-07-20T18:13:18.934Z,27.40
2018-07-20T18:16:00.723Z,27.30
2018-07-20T18:18:42.420Z,27.20
2018-07-20T18:21:24.153Z,27.20
2018-07-20T18:24:05.757Z,27.20
2018-07-20T18:26:46.515Z,27.20
2018-07-20T18:29:28.175Z,27.20
2018-07-20T18:32:10.158Z,27.20
2018-07-20T18:34:51.488Z,27.30
2018-07-20T18:37:32.181Z,27.20
2018-07-20T18:40:13.769Z,27.20
2018-07-20T18:42:54.540Z,27.20
2018-07-20T18:45:36.181Z,27.10
2018-07-20T18:48:17.885Z,27.00
2018-07-20T18:50:59.612Z,27.00
2018-07-20T18:53:41.273Z,27.00
2018-07-20T18:56:22.854Z,27.00
2018-07-20T18:59:04.739Z,27.00
2018-07-20T19:01:46.320Z,26.90
2018-07-20T19:04:30.085Z,26.90
2018-07-20T19:07:11.376Z,26.90
2018-07-20T19:09:56.050Z,26.90
2018-07-20T19:12:39.465Z,26.90
2018-07-20T19:15:21.359Z,26.90
2018-07-20T19:18:03.114Z,26.80
2018-07-20T19:20:44.654Z,26.80
2018-07-20T19:23:26.600Z,26.80
2018-07-20T19:26:08.007Z,26.80
2018-07-20T19:28:49.625Z,26.80
2018-07-20T19:31:31.084Z,26.80
2018-07-20T19:34:12.800Z,26.80
2018-07-20T19:37:00.287Z,26.80
2018-07-20T19:42:25.194Z,26.70
2018-07-20T19:45:07.420Z,26.70
2018-07-20T19:47:48.174Z,26.70
2018-07-20T19:50:29.956Z,26.80
2018-07-20T19:53:11.536Z,26.70
2018-07-20T19:55:55.316Z,26.70
2018-07-20T19:58:37.290Z,26.70
2018-07-20T20:01:18.785Z,26.60
2018-07-20T20:04:00.376Z,26.60
2018-07-20T20:06:42.752Z,26.70
2018-07-20T20:09:23.778Z,26.60
2018-07-20T20:12:05.408Z,26.60
2018-07-20T20:14:47.549Z,26.50
2018-07-20T20:17:28.494Z,26.50
2018-07-20T20:20:11.110Z,26.60
2018-07-20T20:22:52.742Z,26.50
2018-07-20T20:25:33.534Z,26.50
2018-07-20T20:28:22.320Z,26.50
2018-07-20T20:31:04.038Z,26.50
2018-07-20T20:33:46.009Z,26.60
2018-07-20T20:36:27.270Z,26.50
2018-07-20T20:39:10.057Z,26.50
2018-07-20T20:41:51.803Z,26.50
2018-07-20T20:44:36.541Z,26.50
2018-07-20T20:47:18.583Z,26.30
2018-07-20T20:50:00.278Z,26.30
2018-07-20T20:52:41.623Z,26.30
2018-07-20T20:55:24.397Z,26.30
2018-07-20T20:58:06.025Z,26.30
2018-07-20T21:00:47.755Z,26.30
2018-07-20T21:03:29.496Z,26.30
2018-07-20T21:06:11.375Z,26.30
2018-07-20T21:08:52.126Z,26.30
2018-07-20T21:11:33.952Z,26.30
2018-07-20T21:17:22.650Z,26.20
2018-07-20T21:20:04.433Z,26.20
2018-07-20T21:22:46.090Z,26.20
2018-07-20T21:25:27.079Z,26.20
2018-07-20T21:28:08.636Z,26.10
2018-07-20T21:30:50.270Z,26.10
2018-07-20T21:33:32.414Z,26.10
2018-07-20T21:36:14.410Z,26.00
2018-07-20T21:38:55.436Z,26.00
2018-07-20T21:41:37.194Z,26.00
2018-07-20T21:44:18.634Z,26.00
2018-07-20T21:47:00.325Z,26.00
2018-07-20T21:49:42.171Z,25.90
2018-07-20T21:52:23.785Z,25.90
2018-07-20T21:55:05.477Z,25.90
2018-07-20T21:57:46.342Z,25.90
2018-07-20T22:00:28.101Z,25.90
2018-07-20T22:03:10.224Z,25.80
2018-07-20T22:05:51.330Z,25.80
2018-07-20T22:08:33.160Z,25.80
2018-07-20T22:11:14.682Z,25.80
2018-07-20T22:13:56.377Z,25.80
2018-07-20T22:16:38.093Z,25.80
2018-07-20T22:19:18.876Z,25.70
2018-07-20T22:21:59.701Z,25.70
2018-07-20T22:24:41.307Z,25.70
2018-07-20T22:27:23.168Z,25.70
2018-07-20T22:30:04.565Z,25.70
2018-07-20T22:32:46.201Z,25.70
2018-07-20T22:35:27.935Z,25.70
2018-07-20T22:38:09.767Z,25.70
2018-07-20T22:40:51.399Z,25.60
2018-07-20T22:43:33.129Z,25.60
2018-07-20T22:46:14.821Z,25.60
2018-07-20T22:48:55.687Z,25.60
2018-07-20T22:51:37.316Z,25.60
2018-07-20T22:54:19.102Z,25.60
2018-07-20T22:57:00.822Z,25.60
2018-07-20T22:59:42.570Z,25.60
2018-07-20T23:02:24.228Z,25.60
2018-07-20T23:05:05.879Z,25.50
2018-07-20T23:07:46.620Z,25.50
2018-07-20T23:10:27.454Z,25.50
2018-07-20T23:13:08.986Z,25.50
2018-07-20T23:15:50.551Z,25.40
2018-07-20T23:18:31.265Z,25.40
2018-07-20T23:21:13.019Z,25.50
2018-07-20T23:23:54.759Z,25.50
2018-07-20T23:26:35.516Z,25.50
2018-07-20T23:29:16.230Z,25.50
2018-07-20T23:31:57.450Z,25.50
2018-07-20T23:34:38.595Z,25.60
2018-07-20T23:37:20.439Z,25.70
2018-07-20T23:40:02.163Z,25.70
2018-07-20T23:42:43.876Z,25.80
2018-07-20T23:45:25.576Z,25.80
2018-07-20T23:48:07.165Z,25.80
2018-07-20T23:50:48.933Z,25.80
2018-07-20T23:53:29.697Z,25.80
2018-07-20T23:56:11.161Z,25.90
2018-07-20T23:58:52.834Z,25.80
